Stations météo

réclame
Mon MeteoGroup
Sylarna, Suède (2209): Température de l'air & dewpoint: 17.10.2018 22:00:00 - 23.10.2018 22:00:00 (CEST)Sylarna, Suède (2209): Vitesse du vent & gusts: 17.10.2018 22:00:00 - 23.10.2018 22:00:00 (CEST)Sylarna, Suède (2209): Direction du vent: 17.10.2018 22:00:00 - 23.10.2018 22:00:00 (CEST)
Date & Time tt [°C] td [°C] ff [km/h] ff [knt] fx [km/h] fx [knt] dd
23.10.2018 22:00:00 -3,6 -4,1 46 25 75 41 WNW
23.10.2018 21:00:00 -3,8 -4,3 35 19 47 26 WNW
23.10.2018 20:00:00 -4,3 -4,7 29 16 62 33 NW
23.10.2018 19:00:00 -4,2 -4,9 39 21 57 31 NW
23.10.2018 18:00:00 -4,6 -5,0 34 18 55 30 NW
23.10.2018 17:00:00 -4,4 -4,9 33 18 52 28 NW
23.10.2018 16:00:00 -4,2 -4,7 37 20 63 34 NW
23.10.2018 15:00:00 -4,1 -4,5 42 23 58 32 WNW
23.10.2018 14:00:00 -3,1 -3,6 34 18 51 27 WNW
23.10.2018 13:00:00 -2,9 -3,4 39 21 52 28 WNW
23.10.2018 12:00:00 -2,2 -2,8 26 14 44 24 NW
23.10.2018 11:00:00 -2,0 -3,0 27 15 39 21 WNW
23.10.2018 10:00:00 -1,6 -2,9 21 11 30 16 WNW
23.10.2018 09:00:00 -2,1 -2,8 19 10 29 15 WNW
23.10.2018 08:00:00 -2,0 -2,8 18 10 25 13 WNW
23.10.2018 07:00:00 -1,9 -2,9 12 7 16 9 NW
23.10.2018 06:00:00 -2,1 -3,1 3 2 14 7 NNW
23.10.2018 05:00:00 -2,7 -3,4 2 1 5 3 S
23.10.2018 04:00:00 -2,1 -3,8 3 1 18 10 ENE
23.10.2018 03:00:00 -1,6 -4,6 9 5 33 18 SW
23.10.2018 02:00:00 -1,5 -4,3 23 12 46 25 SSW
23.10.2018 01:00:00 -2,0 -4,3 32 17 46 25 S
23.10.2018 00:00:00 -2,1 -4,8 31 17 51 28 S
22.10.2018 23:00:00 -1,8 -5,3 29 16 42 23 SSW
22.10.2018 22:00:00 -1,5 -6,3 21 12 50 27 SSW
22.10.2018 21:00:00 -1,2 -6,9 27 15 53 28 SSW
22.10.2018 20:00:00 -2,4 -5,2 28 15 56 30 WSW
22.10.2018 19:00:00 -2,4 -4,0 36 19 52 28 W
22.10.2018 18:00:00 -2,5 -3,8 41 22 56 31 W
22.10.2018 17:00:00 -2,4 -3,0 46 25 67 36 W
22.10.2018 16:00:00 -2,0 -2,8 44 24 66 35 W
22.10.2018 15:00:00 -1,9 -2,6 38 21 75 40 W
22.10.2018 14:00:00 -1,3 -2,4 42 23 68 37 W
22.10.2018 13:00:00 -1,4 -2,8 45 24 76 41 W
22.10.2018 12:00:00 -1,6 -3,0 39 21 68 37 W
22.10.2018 11:00:00 -2,2 -3,2 37 20 69 38 W
22.10.2018 10:00:00 -2,2 -3,2 47 25 76 41 W
22.10.2018 09:00:00 -2,5 -3,6 42 23 62 34 WSW
22.10.2018 08:00:00 -1,3 -4,6 27 15 72 39 WSW
22.10.2018 07:00:00 -1,9 -4,7 18 10 54 29 WSW
22.10.2018 06:00:00 -1,6 -4,4 27 14 50 27 W
22.10.2018 05:00:00 -1,5 -3,2 24 13 61 33 W
22.10.2018 04:00:00 0,3 -5,5 37 20 66 35 WSW
22.10.2018 03:00:00 0,1 -4,5 18 10 51 28 SW
22.10.2018 02:00:00 -0,8 -3,2 22 12 41 22 W
22.10.2018 01:00:00 -1,0 -2,6 25 14 40 21 W
22.10.2018 00:00:00 -0,7 -2,3 27 15 48 26 W
21.10.2018 23:00:00 -0,8 -1,8 29 16 47 25 W
21.10.2018 22:00:00 -0,1 -0,1 27 15 50 27 W
21.10.2018 21:00:00 0,0 -0,3 29 16 49 26 WNW
21.10.2018 20:00:00 0,6 0,0 19 10 34 18 W
21.10.2018 19:00:00 0,8 0,2 19 10 44 24 W
21.10.2018 18:00:00 1,8 0,8 27 14 47 26 WNW
21.10.2018 17:00:00 3,8 1,7 24 13 39 21 W
21.10.2018 16:00:00 2,1 2,1 19 10 28 15 NW
21.10.2018 15:00:00 3,0 3,0 19 10 27 15 NNW
21.10.2018 14:00:00 4,5 3,6 5 3 25 14 NNW
21.10.2018 13:00:00 4,5 3,2 20 11 34 19 W
21.10.2018 12:00:00 4,9 3,4 22 12 53 28 SSW
21.10.2018 11:00:00 5,9 2,9 30 16 64 35 SW
21.10.2018 10:00:00 6,4 3,2 39 21 60 32 SW
21.10.2018 09:00:00 6,2 2,8 40 22 57 31 SSW
21.10.2018 08:00:00 6,3 3,5 31 17 52 28 SW
21.10.2018 07:00:00 5,2 3,4 26 14 52 28 SW
21.10.2018 06:00:00 7,6 3,6 38 21 56 30 WSW
21.10.2018 05:00:00 6,8 3,8 27 15 47 26 SW
21.10.2018 04:00:00 6,7 4,4 26 14 50 27 SW
21.10.2018 03:00:00 6,7 4,7 31 17 61 33 WSW
21.10.2018 02:00:00 5,8 4,0 14 8 56 30 S
21.10.2018 01:00:00 6,8 3,4 34 19 64 34 S
21.10.2018 00:00:00 4,7 0,3 32 17 54 29 SSW
20.10.2018 23:00:00 3,2 -2,1 35 19 68 37 ESE
20.10.2018 22:00:00 2,6 -1,9 45 25 66 36 S
20.10.2018 21:00:00 3,2 -2,3 38 21 64 34 S
20.10.2018 20:00:00 2,4 -2,1 30 16 46 25 S
20.10.2018 19:00:00 2,2 -1,8 11 6 34 18 S
20.10.2018 18:00:00 2,3 -1,5 17 9 27 15 SE
20.10.2018 17:00:00 1,9 -0,8 15 8 21 12 SSE
20.10.2018 16:00:00 2,3 -1,1 9 5 14 8 SE
20.10.2018 15:00:00 2,4 -0,4 6 3 20 11 W
20.10.2018 14:00:00 1,6 0,3 11 6 24 13 W
20.10.2018 13:00:00 1,5 0,6 13 7 35 19 W
20.10.2018 12:00:00 1,5 -0,1 21 11 32 18 W
20.10.2018 11:00:00 1,2 0,8 19 10 27 15 WNW
20.10.2018 10:00:00 1,0 0,7 18 10 28 15 WNW
20.10.2018 09:00:00 0,7 0,7 17 9 30 16 WNW
20.10.2018 08:00:00 0,9 0,6 18 10 36 20 WNW
20.10.2018 07:00:00 1,3 0,0 17 9 27 14 W
20.10.2018 06:00:00 1,4 -0,7 9 5 23 12 N
20.10.2018 05:00:00 1,2 -0,9 4 2 22 12 E
20.10.2018 04:00:00 1,3 -0,8 13 7 29 15 SW
20.10.2018 03:00:00 1,8 -1,1 22 12 31 17 WSW
20.10.2018 02:00:00 2,3 -1,5 21 12 37 20 SW
20.10.2018 01:00:00 2,8 -1,7 24 13 36 19 SW
20.10.2018 00:00:00 2,6 -2,3 22 12 36 20 SSW
19.10.2018 23:00:00 2,2 -2,3 20 11 25 13 SSE
19.10.2018 22:00:00 2,9 -3,0 18 10 30 16 S
19.10.2018 21:00:00 2,9 -3,5 23 13 37 20 S
19.10.2018 20:00:00 2,5 -3,0 19 11 34 18 S
19.10.2018 19:00:00 2,5 -2,6 29 16 36 19 SSE
19.10.2018 18:00:00 3,0 -3,1 26 14 35 19 S
19.10.2018 17:00:00 3,1 -2,8 21 12 29 16 S
19.10.2018 16:00:00 2,8 -0,8 16 9 23 12 S
19.10.2018 15:00:00 2,7 -0,1 16 9 28 15 S
19.10.2018 14:00:00 2,4 0,5 13 7 26 14 SSW
19.10.2018 13:00:00 2,1 0,9 14 7 25 13 WSW
19.10.2018 12:00:00 2,0 1,1 16 8 29 16 W
19.10.2018 11:00:00 1,3 1,0 13 7 39 21 W
19.10.2018 10:00:00 1,6 1,2 26 14 39 21 W
19.10.2018 09:00:00 1,1 0,8 26 14 37 20 W
19.10.2018 08:00:00 0,6 0,6 28 15 45 24 W
19.10.2018 07:00:00 0,6 0,6 26 14 46 25 W
19.10.2018 06:00:00 0,3 0,3 32 17 48 26 W
19.10.2018 05:00:00 0,2 0,1 36 20 54 29 W
19.10.2018 04:00:00 -0,1 -0,1 31 17 51 28 W
19.10.2018 03:00:00 -0,1 -0,2 39 21 60 32 WNW
19.10.2018 02:00:00 -0,1 -0,2 37 20 51 27 WNW
19.10.2018 01:00:00 -0,1 -0,1 37 20 61 33 WNW
19.10.2018 00:00:00 -0,2 -0,3 32 17 58 31 W
18.10.2018 23:00:00 -0,2 -0,5 44 24 67 36 W
18.10.2018 22:00:00 -0,1 -0,8 45 25 66 36 WNW
18.10.2018 21:00:00 -0,1 -0,5 44 24 74 40 WNW
18.10.2018 20:00:00 0,1 -1,2 51 27 72 39 W
18.10.2018 19:00:00 0,1 -1,3 42 23 60 33 W
18.10.2018 18:00:00 0,4 -1,2 38 20 57 31 W
18.10.2018 17:00:00 0,6 -1,0 25 13 52 28 W
18.10.2018 16:00:00 0,9 -1,3 32 18 60 33 W
18.10.2018 15:00:00 0,9 -1,2 36 19 61 33 W
18.10.2018 14:00:00 0,8 -1,3 42 23 72 39 W
18.10.2018 13:00:00 1,0 -2,4 50 27 69 38 W
18.10.2018 12:00:00 0,8 -1,9 34 19 61 33 WSW
18.10.2018 11:00:00 0,5 -1,9 27 15 49 26 W
18.10.2018 10:00:00 0,6 -2,6 22 12 38 21 WNW
18.10.2018 09:00:00 0,4 -1,8 29 16 57 31 W
18.10.2018 08:00:00 -0,4 -0,8 23 12 39 21 WNW
18.10.2018 07:00:00 1,5 -2,6 15 8 31 17 WSW
18.10.2018 06:00:00 2,1 -1,7 14 8 28 15 SSW
18.10.2018 05:00:00 1,6 -0,8 10 5 26 14 WSW
18.10.2018 04:00:00 0,3 -0,3 4 2 19 10 ENE
18.10.2018 03:00:00 1,3 0,7 16 9 26 14 WNW
18.10.2018 02:00:00 1,3 0,4 20 11 32 17 W
18.10.2018 01:00:00 0,3 0,3 10 5 19 11 NNW
18.10.2018 00:00:00 1,3 1,3 15 8 26 14 NW
17.10.2018 23:00:00 2,6 2,6 14 7 26 14 NW
17.10.2018 22:00:00 3,0 3,0 16 8 27 15 NNW

tt = Température de l'air
td = dewpoint
ff = Vitesse du vent
fx = gusts
dd = Direction du vent

stations d'obs. à proximité